Flight Track Log - Related Links

Times and Time Zones

All times are in EDT time to prevent confusion due to time zone crossing. See the UAL1630 flight status page for this flight to view local times or setup timezone preferences in your user account.

Time Position Orientation Groundspeed Altitude Reporting Facility
EDT Latitude Longitude Course Direction KTS MPH feet Rate Location/Type
Wed 03:44:44 PM 41.4220 -81.8310 49° Northeast 185 213 1,500  Level FlightAware ADS-B
Wed 03:45:00 PM 41.4340 -81.8200 34° Northeast 189 217 2,000 1,650 Climbing FlightAware ADS-B
Wed 03:45:24 PM 41.4550 -81.8060 27° Northeast 218 251 2,600 1,800 Climbing FlightAware ADS-B
Wed 03:46:00 PM 41.4910 -81.7820 27° Northeast 254 292 3,800 2,182 Climbing FlightAware ADS-B
Wed 03:46:08 PM 41.4990 -81.7760 29° Northeast 256 295 4,200 2,571 Climbing FlightAware ADS-B
Wed 03:46:42 PM 41.5360 -81.7480 30° Northeast 278 320 5,600 2,700 Climbing FlightAware ADS-B
Wed 03:47:08 PM 41.5630 -81.7200 38° Northeast 285 328 6,900 2,885 Climbing FlightAware ADS-B
Wed 03:47:34 PM 41.5880 -81.6920 40° Northeast 291 335 8,100 2,679 Climbing FlightAware ADS-B
Wed 03:48:04 PM 41.6200 -81.6570 39° Northeast 302 348 9,400 2,743 Climbing FlightAware ADS-B
Wed 03:48:44 PM 41.6660 -81.6070 39° Northeast 310 357 11,300 2,714 Climbing FlightAware ADS-B
Wed 03:49:28 PM 41.7140 -81.5550 39° Northeast 317 365 13,200 2,630 Climbing FlightAware ADS-B
Wed 03:49:57 PM 41.7400 -81.5090 53° Northeast 324 373 14,500 2,486 Climbing FlightAware ADS-B
Wed 03:50:38 PM 41.7530 -81.4270 78° East 334 384 16,100 2,182 Climbing FlightAware ADS-B
Wed 03:51:14 PM 41.7660 -81.3520 77° East 345 397 17,300 2,163 Climbing FlightAware ADS-B
Wed 03:52:04 PM 41.7830 -81.2450 78° East 354 407 19,200 2,114 Climbing FlightAware ADS-B
Wed 03:52:42 PM 41.7970 -81.1630 77° East 359 413 20,400 2,154 Climbing FlightAware ADS-B
Wed 03:53:22 PM 41.8100 -81.0800 78° East 352 405 22,000 2,143 Climbing FlightAware ADS-B
Wed 03:54:06 PM 41.8260 -80.9840 77° East 355 409 23,400 1,571 Climbing FlightAware ADS-B
Wed 03:54:46 PM 41.8400 -80.8950 78° East 371 427 24,200 1,129 Climbing FlightAware ADS-B
Wed 03:55:31 PM 41.8540 -80.8090 78° East 383 441 25,000 1,320 Climbing FlightAware ADS-B
Wed 03:56:26 PM 41.8760 -80.6690 78° East 395 455 26,400 1,440 Climbing FlightAware ADS-B
Wed 03:57:11 PM 41.8920 -80.5680 78° East 401 461 27,400 1,425 Climbing FlightAware ADS-B
Wed 03:57:46 PM 41.9070 -80.4740 78° East 406 467 28,300 1,500 Climbing FlightAware ADS-B
Wed 03:58:31 PM 41.9250 -80.3610 78° East 406 467 29,400 1,341 Climbing FlightAware ADS-B
Wed 03:59:11 PM 41.9400 -80.2660 78° East 408 470 30,200 1,143 Climbing FlightAware ADS-B
Wed 03:59:55 PM 41.9550 -80.1630 79° East 411 473 31,000 1,129 Climbing FlightAware ADS-B
Wed 04:00:36 PM 41.9720 -80.0520 78° East 416 479 31,800 1,116 Climbing FlightAware ADS-B
Wed 04:01:21 PM 41.9900 -79.9370 78° East 421 484 32,600 800 Climbing FlightAware ADS-B
Wed 04:02:06 PM 42.0190 -79.8310 70° East 426 490 33,000 282 Climbing FlightAware ADS-B
Wed 04:02:46 PM 42.0490 -79.7300 68° East 438 504 33,000  Level FlightAware ADS-B
Wed 04:03:26 PM 42.0820 -79.6220 68° East 446 513 33,000  Level FlightAware ADS-B
Wed 04:04:06 PM 42.1130 -79.5190 68° East 446 513 33,000  Level FlightAware ADS-B
Wed 04:04:46 PM 42.1440 -79.4160 68° East 447 514 33,000  Level FlightAware ADS-B
Wed 04:05:30 PM 42.1770 -79.2990 69° East 449 517 33,000  Level FlightAware ADS-B
Wed 04:06:18 PM 42.1960 -79.1640 79° East 453 521 33,000  Level FlightAware ADS-B
Wed 04:06:56 PM 42.2090 -79.0580 81° East 455 524 33,000  Level FlightAware ADS-B
Wed 04:07:41 PM 42.2240 -78.9340 81° East 455 524 33,000  Level FlightAware ADS-B
Wed 04:08:20 PM 42.2380 -78.8250 80° East 456 525 33,000  Level FlightAware ADS-B
Wed 04:09:06 PM 42.2530 -78.6950 81° East 457 526 33,000  Level FlightAware ADS-B
Wed 04:09:44 PM 42.2670 -78.5870 80° East 457 526 33,000  Level FlightAware ADS-B
Wed 04:10:44 PM 42.2870 -78.4240 81° East 458 527 33,000  Level FlightAware ADS-B
Wed 04:11:26 PM 42.3010 -78.3000 81° East 457 526 33,000  Level FlightAware ADS-B
Wed 04:12:06 PM 42.3140 -78.1900 81° East 456 525 33,000  Level FlightAware ADS-B
Wed 04:12:46 PM 42.3270 -78.0800 81° East 457 526 33,000  Level FlightAware ADS-B
Wed 04:13:33 PM 42.3430 -77.9450 81° East 457 526 33,000  Level FlightAware ADS-B
Wed 04:14:13 PM 42.3570 -77.8300 81° East 459 528 33,000  Level FlightAware ADS-B
Wed 04:14:51 PM 42.3690 -77.7230 81° East 461 531 33,000  Level FlightAware ADS-B
Wed 04:15:31 PM 42.3820 -77.6100 81° East 462 532 33,000  Level FlightAware ADS-B
Wed 04:16:19 PM 42.3970 -77.4710 82° East 463 533 33,000  Level FlightAware ADS-B
Wed 04:16:59 PM 42.4100 -77.3590 81° East 462 532 33,000  Level FlightAware ADS-B
Wed 04:17:41 PM 42.4230 -77.2380 82° East 461 531 33,000  Level FlightAware ADS-B
Wed 04:18:25 PM 42.4370 -77.1140 81° East 460 529 33,000  Level FlightAware ADS-B
Wed 04:19:09 PM 42.4500 -76.9900 82° East 459 528 33,000  Level FlightAware ADS-B
Wed 04:19:49 PM 42.4630 -76.8750 81° East 462 532 33,000  Level FlightAware ADS-B
Wed 04:20:31 PM 42.4750 -76.7550 82° East 464 534 33,000  Level FlightAware ADS-B
Wed 04:21:13 PM 42.4880 -76.6330 82° East 469 540 33,000  Level FlightAware ADS-B
Wed 04:21:57 PM 42.5010 -76.5050 82° East 474 545 33,000  Level FlightAware ADS-B
Wed 04:22:39 PM 42.5140 -76.3790 82° East 475 547 33,000  Level FlightAware ADS-B
Wed 04:23:17 PM 42.5360 -76.2740 74° East 468 539 33,000  Level FlightAware ADS-B
Wed 04:24:01 PM 42.5800 -76.1600 62° Northeast 468 539 33,000  Level FlightAware ADS-B
Wed 04:24:43 PM 42.6250 -76.0520 60° Northeast 470 541 33,000  Level FlightAware ADS-B
Wed 04:25:23 PM 42.6670 -75.9480 61° Northeast 471 542 33,000  Level FlightAware ADS-B
Wed 04:26:07 PM 42.7130 -75.8320 62° Northeast 472 543 33,000  Level FlightAware ADS-B
Wed 04:26:47 PM 42.7310 -75.7180 78° East 481 554 33,000  Level FlightAware ADS-B
Wed 04:27:29 PM 42.7260 -75.5910 93° East 482 555 33,000  Level FlightAware ADS-B
Wed 04:28:15 PM 42.7200 -75.4520 93° East 485 558 33,000  Level FlightAware ADS-B
Wed 04:28:53 PM 42.7160 -75.3360 93° East 487 560 33,000  Level FlightAware ADS-B
Wed 04:29:37 PM 42.7100 -75.1990 93° East 489 563 33,000  Level FlightAware ADS-B
Wed 04:33:14 PM 42.6840 -74.5630 93° East 499 574 33,000 -46 Level FlightAware ADS-B
Wed 04:33:56 PM 42.6760 -74.3940 94° East 499 574 32,800 -628 Descending FlightAware ADS-B
Wed 04:34:40 PM 42.6700 -74.2580 93° East 496 571 32,100 -977 Descending FlightAware ADS-B
Wed 04:35:22 PM 42.6640 -74.1300 94° East 494 568 31,400 -1,024 Descending FlightAware ADS-B
Wed 04:36:02 PM 42.6580 -74.0030 94° East 492 566 30,700 -1,000 Descending FlightAware ADS-B
Wed 04:36:40 PM 42.6520 -73.8900 94° East 485 558 30,100 -615 Descending FlightAware ADS-B
Wed 04:37:20 PM 42.6460 -73.7810 94° East 482 555 29,900 -522 Descending FlightAware ADS-B
Wed 04:38:12 PM 42.6430 -73.7170 94° East 477 549 29,300 -1,295 Descending FlightAware ADS-B
Wed 04:38:48 PM 42.6320 -73.5080 94° East 468 539 28,000 -1,481 Descending FlightAware ADS-B
Wed 04:39:33 PM 42.6250 -73.3790 94° East 467 537 27,300 -995 Descending FlightAware ADS-B
Wed 04:42:13 PM 42.6000 -72.9280 94° East 438 504 24,600 -886 Descending FlightAware ADS-B
Wed 04:43:03 PM 42.5930 -72.8080 94° East 437 503 24,200 -1,043 Descending FlightAware ADS-B
Wed 04:43:45 PM 42.5850 -72.6820 95° East 430 495 23,000 -1,390 Descending FlightAware ADS-B
Wed 04:44:25 PM 42.5780 -72.5700 95° East 424 488 22,300 -1,125 Descending FlightAware ADS-B
Wed 04:45:05 PM 42.5720 -72.4620 94° East 422 486 21,500 -1,605 Descending FlightAware ADS-B
Wed 04:45:51 PM 42.5640 -72.3440 95° East 415 478 20,000 -1,857 Descending FlightAware ADS-B
Wed 04:46:29 PM 42.5580 -72.2460 95° East 409 471 18,900 -1,814 Descending FlightAware ADS-B
Wed 04:47:17 PM 42.5500 -72.1240 95° East 401 461 17,400 -1,773 Descending FlightAware ADS-B
Wed 04:47:57 PM 42.5430 -72.0250 95° East 391 450 16,300 -1,725 Descending FlightAware ADS-B
Wed 04:48:37 PM 42.5340 -71.9300 97° East 384 442 15,100 -1,674 Descending FlightAware ADS-B
Wed 04:49:23 PM 42.5250 -71.8210 96° East 372 428 13,900 -1,171 Descending FlightAware ADS-B
Wed 04:49:59 PM 42.5180 -71.7410 97° East 345 397 13,500 -868 Descending FlightAware ADS-B
Wed 04:50:39 PM 42.5110 -71.6590 97° East 330 380 12,800 -1,241 Descending FlightAware ADS-B
Wed 04:51:55 PM 42.4990 -71.5040 96° East 317 365 11,100 -1,138 Descending FlightAware ADS-B
Wed 04:52:35 PM 42.4930 -71.4270 96° East 321 369 10,600 -1,031 Descending FlightAware ADS-B
Wed 04:52:59 PM 42.4890 -71.3780 96° East 321 369 10,000 -1,500 Descending FlightAware ADS-B
Wed 04:53:19 PM 42.4860 -71.3380 96° East 317 365 9,500 -1,500 Descending FlightAware ADS-B
Wed 04:53:47 PM 42.4810 -71.2820 97° East 316 364 8,800 -1,448 Descending FlightAware ADS-B
Wed 04:54:17 PM 42.4770 -71.2240 95° East 315 362 8,100 -1,393 Descending FlightAware ADS-B
Wed 04:54:43 PM 42.4720 -71.1730 98° East 313 360 7,500 -1,294 Descending FlightAware ADS-B
Wed 04:55:08 PM 42.4610 -71.1350 111° Southeast 308 354 7,000 -1,179 Descending FlightAware ADS-B
Wed 04:55:39 PM 42.4420 -71.0730 113° Southeast 299 344 6,400 -787 Descending FlightAware ADS-B
Wed 04:56:09 PM 42.4270 -71.0230 112° Southeast 280 322 6,200 -277 Descending FlightAware ADS-B
Wed 04:56:44 PM 42.4120 -70.9700 111° Southeast 263 303 6,100 -120 Descending FlightAware ADS-B
Wed 04:56:59 PM 42.4020 -70.9500 124° Southeast 246 283 6,100  Level FlightAware ADS-B
Wed 04:57:14 PM 42.3870 -70.9370 147° Southeast 234 269 6,100  Level FlightAware ADS-B
Wed 04:57:29 PM 42.3720 -70.9290 158° South 242 278 6,100  Level FlightAware ADS-B
Wed 04:58:14 PM 42.3250 -70.9280 179° South 218 251 6,100  Level FlightAware ADS-B
Wed 04:58:39 PM 42.3020 -70.9380 198° South 222 255 6,100 -436 Level FlightAware ADS-B
Wed 04:59:09 PM 42.2760 -70.9500 199° South 222 255 5,700 -1,200 Descending FlightAware ADS-B
Wed 04:59:24 PM 42.2560 -70.9590 198° South 223 257 5,200 -1,463 Descending FlightAware ADS-B
Wed 04:59:50 PM 42.2350 -70.9680 198° South 220 253 4,700 -1,419 Descending FlightAware ADS-B
Wed 05:00:57 PM 42.1667 -71.0000 198° South 218 251 3,000 -1,522 Descending KA90

Login

Don't have an account? Register now (free) for customized features, flight alerts, and more!